Home PIREPS Pireps

Flight BEL7012

  • Submitted By: Johan Willems
  • Departure Airport: Rhein-Main-Flughafen Frankfurt am Main (EDDF)
  • Arrival Airport: Bruxelles National (EBBR)
  • Aircraft: A320-214 (OO-SNA)
  • Flight Time: 00.50
  • Date Submitted: 23/04/2015
  • Status: Accepted
Flight Details
Gross Revenue:
(145 load / € 41.00 per unit
€ 5,945.00
Fuel Cost:
(2200 fuel used @ 5.1 / unit)
€ 11,220.00

Additional Log Information:

View Log

Aircraft Used in flight is Airbus A320 brussels
14:50 You Took off @ 145 Knots and Flaps at Position 3
Departure Weather
EDDF 231220Z VRB03KT CAVOK 16/01 Q1018 NOSIGrn
14:50 Landing Gear Up @ 161 Knots and 450 Feet
14:55 You exceeded maximum bank angle
15:10 Below 10000 feet you are not allowed to go over 250 knots
15:24 Landing Gear Down @ 170 Knots and 1930 Feet
15:27 You Landed @ 135 Knots and with -200 Vertical Speed
Arrival Weather
EBBR 231250Z VRB02KT CAVOK 15/05 Q1019 NOSIGrn
15:30 Brakes are On
15:30 Brussels Bel-Track1.0.0.9

Route Map

Corporate About Us Our Team Vacancies Information Fleet Route Network Rules and Regulations Operations Flight Schedules Event Center Tours Partners IVAO Vatsim Acars dev FSCB

fb Users Online No pilots online!
0 Pilot(s) and 105 Guest(s) Online
CMS by phpVMS - Design by Crazycreatives.com - Copyright © 2018 - Brussels Airlines Virtual